Time;durP1;ratioP1;P1;durP2;ratioP2;P2;SDS_P1;SDS_P2;PMS_P1;PMS_P2;Temp;Humidity;BMP_temperature;BMP_pressure;BME280_temperature;BME280_humidity;BME280_pressure;Samples;Min_cycle;Max_cycle;Signal;HPM_P1;HPM_P2
2023/04/28 00:02:11;;;;;;;12.00;7.20;;;9.30;99.90;;;;;;5055776;28;20072;-71
2023/04/28 00:04:36;;;;;;;16.77;6.78;;;9.40;99.90;;;;;;5057029;28;20482;-71
2023/04/28 00:07:02;;;;;;;13.02;7.50;;;9.40;99.90;;;;;;5056917;28;20379;-71
2023/04/28 00:09:28;;;;;;;12.70;7.65;;;9.40;99.90;;;;;;5057224;28;20056;-72
2023/04/28 00:11:53;;;;;;;12.20;7.15;;;9.40;99.90;;;;;;5057166;28;20025;-72
2023/04/28 00:14:19;;;;;;;11.88;7.63;;;9.40;99.90;;;;;;5056983;28;20029;-71
2023/04/28 00:16:44;;;;;;;13.52;7.57;;;9.30;1.00;;;;;;5057008;28;20043;-72
2023/04/28 00:19:10;;;;;;;13.38;7.45;;;9.40;99.90;;;;;;5056765;28;20383;-71
2023/04/28 00:21:35;;;;;;;13.43;7.50;;;9.30;99.90;;;;;;5056450;28;20052;-71
2023/04/28 00:24:01;;;;;;;13.32;7.75;;;9.30;99.90;;;;;;5056880;28;20110;-72
2023/04/28 00:26:26;;;;;;;16.80;7.63;;;9.20;12.60;;;;;;5056173;28;20025;-72
2023/04/28 00:28:52;;;;;;;13.43;7.30;;;9.30;99.90;;;;;;5056620;28;20552;-72
2023/04/28 00:31:18;;;;;;;13.50;7.97;;;9.20;1.00;;;;;;5056837;28;20025;-71
2023/04/28 00:33:43;;;;;;;14.57;7.57;;;9.30;99.90;;;;;;5056522;28;20036;-71
2023/04/28 00:36:10;;;;;;;14.63;7.40;;;9.30;99.90;;;;;;5056422;28;20064;-72
2023/04/28 00:38:36;;;;;;;14.27;7.60;;;9.30;99.90;;;;;;5056700;28;20027;-72
2023/04/28 00:41:01;;;;;;;11.40;8.32;;;9.30;1.00;;;;;;5056316;28;20040;-71
2023/04/28 00:43:27;;;;;;;14.35;7.70;;;9.30;13.70;;;;;;5056062;28;20427;-71
2023/04/28 00:45:53;;;;;;;11.48;7.72;;;9.30;99.90;;;;;;5056233;28;20109;-71
2023/04/28 00:48:19;;;;;;;15.80;8.85;;;9.30;1.00;;;;;;5056676;28;20021;-71
2023/04/28 00:50:45;;;;;;;14.20;8.27;;;9.30;10.10;;;;;;5056410;28;20047;-72
2023/04/28 00:53:11;;;;;;;13.80;8.38;;;9.30;99.90;;;;;;5056084;28;20473;-71
2023/04/28 00:55:37;;;;;;;17.33;8.75;;;9.30;99.90;;;;;;5055829;28;20025;-71
2023/04/28 00:58:04;;;;;;;16.13;8.13;;;9.30;99.90;;;;;;5055970;28;20112;-72
2023/04/28 01:00:30;;;;;;;14.00;8.57;;;9.30;1.00;;;;;;5055729;28;20051;-70
2023/04/28 01:02:56;;;;;;;11.82;7.78;;;9.30;99.90;;;;;;5055479;28;20033;-71
2023/04/28 01:05:24;;;;;;;17.20;9.02;;;9.30;99.90;;;;;;5055580;28;20021;-72
2023/04/28 01:07:50;;;;;;;17.02;8.95;;;9.30;99.90;;;;;;5055742;28;20113;-71
2023/04/28 01:10:16;;;;;;;19.17;9.93;;;9.30;99.90;;;;;;5056098;28;20544;-71
2023/04/28 01:12:42;;;;;;;13.55;8.13;;;9.20;99.90;;;;;;5055326;28;20033;-71
2023/04/28 01:15:15;;;;;;;16.60;8.55;;;9.20;99.90;;;;;;5056010;28;20029;-71
2023/04/28 01:17:40;;;;;;;15.02;9.80;;;9.30;99.90;;;;;;5055431;28;20383;-71
2023/04/28 01:20:06;;;;;;;19.17;8.98;;;9.30;99.90;;;;;;5055292;28;20040;-71
2023/04/28 01:22:32;;;;;;;16.60;8.45;;;9.30;99.90;;;;;;5055872;28;20025;-71
2023/04/28 01:24:59;;;;;;;13.93;8.95;;;9.30;1.00;;;;;;5055085;28;20025;-72
2023/04/28 01:27:24;;;;;;;16.88;9.25;;;9.30;99.90;;;;;;5055221;28;20071;-71
2023/04/28 01:29:50;;;;;;;15.38;9.65;;;9.30;53.30;;;;;;5055611;28;20021;-72
2023/04/28 01:32:15;;;;;;;12.82;8.20;;;9.30;99.90;;;;;;5055688;28;20028;-71
2023/04/28 01:34:41;;;;;;;12.85;9.15;;;9.30;1.00;;;;;;5055598;28;20033;-72
2023/04/28 01:37:06;;;;;;;17.10;8.70;;;9.30;99.90;;;;;;5055344;28;20029;-71
2023/04/28 01:39:33;;;;;;;19.95;8.77;;;9.40;1.00;;;;;;5055658;28;20035;-72
2023/04/28 01:41:59;;;;;;;19.20;9.20;;;9.40;1.00;;;;;;5054596;28;20537;-72
2023/04/28 01:44:25;;;;;;;17.10;9.70;;;9.30;99.90;;;;;;5054799;28;20029;-71
2023/04/28 01:46:50;;;;;;;14.25;8.75;;;9.30;97.00;;;;;;5054574;28;20032;-71
2023/04/28 01:49:16;;;;;;;16.73;9.57;;;9.30;1.00;;;;;;5054903;28;20036;-71
2023/04/28 01:51:41;;;;;;;22.98;9.68;;;9.30;1.00;;;;;;5055307;28;20025;-72
2023/04/28 01:54:07;;;;;;;13.80;9.35;;;9.30;99.90;;;;;;5055418;28;20025;-71
2023/04/28 01:56:32;;;;;;;15.13;9.38;;;9.30;1.00;;;;;;5054936;28;20029;-71
2023/04/28 01:58:58;;;;;;;16.45;9.43;;;9.30;99.90;;;;;;5054692;28;20033;-71
2023/04/28 02:01:23;;;;;;;15.18;9.60;;;9.30;99.90;;;;;;5054346;28;20124;-71
2023/04/28 02:03:49;;;;;;;16.42;9.40;;;9.30;99.90;;;;;;5054467;28;20594;-72
2023/04/28 02:06:15;;;;;;;16.25;10.23;;;9.30;99.90;;;;;;5054905;28;20025;-71
2023/04/28 02:08:40;;;;;;;18.00;9.32;;;9.30;99.90;;;;;;5054680;28;20074;-71
2023/04/28 02:11:06;;;;;;;14.15;9.45;;;9.20;1.00;;;;;;5054326;28;20028;-72
2023/04/28 02:13:31;;;;;;;16.67;9.77;;;9.20;1.00;;;;;;5054295;28;20036;-71
2023/04/28 02:16:00;;;;;;;16.98;10.20;;;9.20;99.90;;;;;;5054875;28;20032;-71
2023/04/28 02:18:26;;;;;;;16.23;9.80;;;9.20;1.00;;;;;;5054218;28;20028;-72
2023/04/28 02:20:51;;;;;;;17.85;10.48;;;9.20;1.00;;;;;;5054889;28;20029;-72
2023/04/28 02:23:17;;;;;;;17.08;9.98;;;9.10;1.00;;;;;;5053851;28;20021;-71
2023/04/28 02:25:42;;;;;;;20.25;10.52;;;9.20;1.00;;;;;;5054168;28;20020;-71
2023/04/28 02:28:08;;;;;;;18.25;10.40;;;9.20;1.00;;;;;;5054579;28;20029;-71
2023/04/28 02:30:33;;;;;;;17.20;10.30;;;9.20;30.20;;;;;;5054598;28;20471;-71
2023/04/28 02:32:59;;;;;;;19.70;11.25;;;9.10;1.00;;;;;;5054506;28;20048;-71
2023/04/28 02:35:24;;;;;;;19.33;11.05;;;9.10;1.00;;;;;;5054149;28;20036;-71
2023/04/28 02:37:51;;;;;;;23.42;11.25;;;9.10;99.90;;;;;;5054424;28;20490;-71
2023/04/28 02:40:17;;;;;;;20.38;11.30;;;9.10;1.00;;;;;;5053446;28;20021;-71
2023/04/28 02:42:42;;;;;;;18.55;10.40;;;9.10;99.90;;;;;;5054010;28;20033;-72
2023/04/28 02:45:08;;;;;;;16.88;9.80;;;9.10;99.90;;;;;;5054321;28;20017;-71
2023/04/28 02:47:34;;;;;;;15.82;10.00;;;9.20;99.90;;;;;;5054449;28;20022;-71
2023/04/28 02:49:59;;;;;;;18.42;10.45;;;9.20;99.90;;;;;;5053981;28;20029;-70
2023/04/28 02:52:25;;;;;;;17.70;10.27;;;9.20;99.90;;;;;;5054396;28;20029;-71
2023/04/28 02:54:53;;;;;;;17.88;9.57;;;9.20;99.90;;;;;;5054333;28;20029;-71
2023/04/28 02:57:19;;;;;;;18.67;10.23;;;9.30;1.00;;;;;;5053629;28;20506;-72
2023/04/28 02:59:45;;;;;;;18.95;10.45;;;9.20;1.00;;;;;;5054080;28;20107;-72
2023/04/28 03:02:11;;;;;;;15.60;10.45;;;9.20;99.90;;;;;;5053199;28;20402;-72
2023/04/28 03:04:37;;;;;;;18.52;10.57;;;9.20;1.00;;;;;;5053725;28;20021;-71
2023/04/28 03:07:02;;;;;;;17.95;10.45;;;9.10;99.90;;;;;;5054008;28;20033;-71
2023/04/28 03:09:28;;;;;;;16.38;9.95;;;9.20;1.00;;;;;;5053950;28;20032;-71
2023/04/28 03:11:53;;;;;;;16.25;9.70;;;9.10;1.00;;;;;;5053727;28;20119;-72
2023/04/28 03:14:19;;;;;;;15.98;10.18;;;9.10;99.90;;;;;;5054160;28;20029;-71
2023/04/28 03:16:45;;;;;;;20.00;11.60;;;9.20;99.90;;;;;;5053638;28;20086;-72
2023/04/28 03:19:10;;;;;;;17.73;10.98;;;9.20;1.00;;;;;;5053613;28;20041;-72
2023/04/28 03:21:36;;;;;;;18.55;11.63;;;9.20;1.00;;;;;;5053715;28;20029;-71
2023/04/28 03:24:01;;;;;;;23.08;11.95;;;9.20;1.00;;;;;;5053284;28;20033;-71
2023/04/28 03:26:27;;;;;;;19.38;11.98;;;9.20;1.00;;;;;;5053690;28;20525;-70
2023/04/28 03:28:52;;;;;;;21.27;12.38;;;9.20;99.90;;;;;;5053409;28;20057;-71
2023/04/28 03:31:18;;;;;;;20.95;13.20;;;9.10;1.00;;;;;;5053523;28;20082;-71
2023/04/28 03:33:45;;;;;;;22.50;13.40;;;9.00;1.00;;;;;;5053789;28;20344;-71
2023/04/28 03:36:11;;;;;;;23.33;14.02;;;8.90;1.00;;;;;;5057126;28;20017;-71
2023/04/28 03:38:37;;;;;;;24.50;14.63;;;8.90;9.80;;;;;;5057825;28;20055;-71
2023/04/28 03:41:02;;;;;;;23.40;14.70;;;8.70;28.60;;;;;;5057568;28;20033;-71
2023/04/28 03:43:28;;;;;;;22.73;15.00;;;8.60;62.00;;;;;;5057593;28;20111;-70
2023/04/28 03:45:54;;;;;;;27.20;15.82;;;8.60;73.80;;;;;;5057384;28;20063;-71
2023/04/28 03:48:19;;;;;;;26.33;16.55;;;8.50;84.60;;;;;;5057327;28;20111;-71
2023/04/28 03:50:45;;;;;;;27.10;16.42;;;8.50;96.60;;;;;;5057016;28;20074;-71
2023/04/28 03:53:11;;;;;;;27.55;15.40;;;8.50;99.90;;;;;;5057571;28;20375;-71
2023/04/28 03:55:37;;;;;;;25.25;16.30;;;8.50;99.90;;;;;;5057189;28;20033;-71
2023/04/28 03:58:02;;;;;;;29.83;17.10;;;8.50;99.90;;;;;;5057125;28;20025;-71
2023/04/28 04:00:28;;;;;;;28.48;16.55;;;8.50;99.90;;;;;;5056889;28;20104;-70
2023/04/28 04:02:53;;;;;;;27.52;17.48;;;8.40;99.90;;;;;;5057015;28;20029;-71
2023/04/28 04:05:19;;;;;;;27.08;18.23;;;8.40;99.90;;;;;;5056731;28;20541;-71
2023/04/28 04:07:44;;;;;;;28.75;17.08;;;8.30;99.90;;;;;;5056941;28;20378;-71
2023/04/28 04:10:10;;;;;;;29.92;17.63;;;8.30;99.90;;;;;;5056952;28;20029;-71
2023/04/28 04:12:36;;;;;;;35.08;18.38;;;8.30;99.90;;;;;;5057165;28;20048;-71
2023/04/28 04:15:02;;;;;;;30.13;17.88;;;8.30;99.90;;;;;;5056567;28;20100;-71
2023/04/28 04:17:28;;;;;;;29.70;18.42;;;8.30;99.90;;;;;;5057047;28;20478;-71
2023/04/28 04:19:53;;;;;;;27.05;17.27;;;8.30;99.90;;;;;;5056564;28;20032;-70
2023/04/28 04:22:19;;;;;;;29.50;18.90;;;8.30;99.90;;;;;;5056690;28;20556;-71
2023/04/28 04:24:44;;;;;;;28.08;17.77;;;8.20;99.90;;;;;;5057003;28;20047;-71
2023/04/28 04:27:10;;;;;;;32.55;17.80;;;8.30;99.90;;;;;;5056884;28;20017;-70
2023/04/28 04:29:36;;;;;;;29.52;18.05;;;8.30;99.90;;;;;;5056817;28;20029;-71
2023/04/28 04:32:01;;;;;;;26.52;18.05;;;8.40;99.90;;;;;;5056724;28;20462;-71
2023/04/28 04:34:27;;;;;;;33.40;18.33;;;8.40;99.90;;;;;;5056936;28;20057;-71
2023/04/28 04:36:52;;;;;;;29.48;18.00;;;8.40;99.90;;;;;;5056616;28;20025;-71
2023/04/28 04:39:18;;;;;;;28.90;18.02;;;8.40;99.90;;;;;;5056526;28;20025;-71
2023/04/28 04:41:43;;;;;;;37.15;18.88;;;8.50;99.90;;;;;;5056255;28;20087;-70
2023/04/28 04:44:09;;;;;;;31.20;19.30;;;8.60;99.90;;;;;;5056510;28;20507;-71
2023/04/28 04:46:35;;;;;;;28.35;17.55;;;8.60;99.90;;;;;;5055149;28;20032;-71
2023/04/28 04:49:00;;;;;;;36.58;19.98;;;8.70;99.90;;;;;;5056178;28;20021;-70
2023/04/28 04:51:26;;;;;;;32.90;19.85;;;8.70;99.90;;;;;;5055974;28;20024;-71
2023/04/28 04:53:52;;;;;;;31.23;19.65;;;8.80;99.90;;;;;;5056415;28;20374;-71
2023/04/28 04:56:18;;;;;;;29.33;18.40;;;8.80;99.90;;;;;;5055757;28;20029;-71
2023/04/28 04:58:43;;;;;;;32.25;18.75;;;8.90;99.90;;;;;;5055853;28;20021;-71
2023/04/28 05:01:09;;;;;;;31.08;18.25;;;8.90;99.90;;;;;;5055504;28;20138;-71
2023/04/28 05:03:35;;;;;;;33.53;18.85;;;8.90;99.90;;;;;;5055372;28;20069;-70
2023/04/28 05:06:01;;;;;;;25.15;16.83;;;8.90;99.90;;;;;;5056425;28;20032;-71
2023/04/28 05:08:27;;;;;;;30.38;18.65;;;9.00;99.90;;;;;;5056387;28;20017;-70
2023/04/28 05:10:53;;;;;;;27.33;18.30;;;9.00;99.90;;;;;;5056144;28;20021;-71
2023/04/28 05:13:18;;;;;;;27.35;18.30;;;9.00;99.90;;;;;;5056076;28;20033;-70
2023/04/28 05:15:44;;;;;;;30.00;19.10;;;9.00;99.90;;;;;;5056208;28;20459;-71
2023/04/28 05:18:10;;;;;;;30.58;18.05;;;9.00;99.90;;;;;;5055826;28;20060;-71
2023/04/28 05:20:36;;;;;;;28.58;18.48;;;9.00;99.90;;;;;;5055406;28;20025;-71
2023/04/28 05:23:02;;;;;;;30.58;18.35;;;9.10;99.90;;;;;;5055686;28;20082;-71
2023/04/28 05:25:28;;;;;;;24.50;17.65;;;9.10;99.90;;;;;;5054149;28;20021;-72
2023/04/28 05:27:54;;;;;;;27.00;17.67;;;9.20;99.90;;;;;;5055408;28;20021;-71
2023/04/28 05:30:23;;;;;;;25.63;17.65;;;9.20;99.90;;;;;;5055742;28;20033;-70
2023/04/28 05:32:48;;;;;;;28.80;17.63;;;9.30;99.90;;;;;;5055070;28;20025;-71
2023/04/28 05:35:14;;;;;;;27.73;18.45;;;9.40;99.90;;;;;;5055627;28;20031;-71
2023/04/28 05:37:42;;;;;;;26.55;17.25;;;9.40;99.90;;;;;;5055357;28;20037;-71
2023/04/28 05:40:08;;;;;;;26.58;17.80;;;9.40;99.90;;;;;;5055348;28;20029;-71
2023/04/28 05:42:34;;;;;;;25.02;17.63;;;9.50;99.90;;;;;;5055031;28;20091;-72
2023/04/28 05:45:00;;;;;;;23.38;16.88;;;9.50;99.90;;;;;;5071482;28;20040;-70
2023/04/28 05:47:25;;;;;;;29.65;18.50;;;9.60;99.90;;;;;;5073434;28;20036;-73
2023/04/28 05:49:51;;;;;;;23.02;15.90;;;9.60;99.90;;;;;;5071121;28;20024;-74
2023/04/28 05:52:16;;;;;;;28.45;17.70;;;9.60;99.90;;;;;;5067307;28;20028;-72
2023/04/28 05:54:42;;;;;;;33.10;19.33;;;9.60;99.90;;;;;;5073463;28;20082;-70
2023/04/28 05:57:08;;;;;;;29.00;18.10;;;9.70;99.90;;;;;;5074720;28;20028;-69
2023/04/28 05:59:33;;;;;;;30.20;18.60;;;9.70;99.90;;;;;;5071763;28;20012;-69
2023/04/28 06:01:59;;;;;;;29.80;18.70;;;9.70;99.90;;;;;;5073678;28;20059;-72
2023/04/28 06:04:25;;;;;;;29.73;18.08;;;9.70;99.90;;;;;;5069234;28;20044;-71
2023/04/28 06:06:51;;;;;;;28.77;18.05;;;9.90;99.90;;;;;;5064665;28;20059;-73
2023/04/28 06:09:16;;;;;;;25.83;17.45;;;9.90;99.90;;;;;;5070384;28;20115;-71
2023/04/28 06:11:42;;;;;;;26.13;17.40;;;10.10;99.90;;;;;;5073882;28;20029;-70
2023/04/28 06:14:07;;;;;;;25.00;16.13;;;10.20;99.90;;;;;;5059990;28;20059;-72
2023/04/28 06:16:33;;;;;;;28.17;17.13;;;10.30;99.90;;;;;;5076521;28;20036;-72
2023/04/28 06:19:00;;;;;;;23.98;16.58;;;10.30;99.90;;;;;;5070580;28;20036;-69
2023/04/28 06:21:27;;;;;;;22.73;16.15;;;10.40;99.90;;;;;;5068569;28;20024;-70
2023/04/28 06:23:53;;;;;;;24.05;16.42;;;10.40;99.90;;;;;;5075759;28;20027;-70
2023/04/28 06:26:18;;;;;;;25.98;16.10;;;10.40;99.90;;;;;;5073872;28;20035;-72
2023/04/28 06:28:44;;;;;;;23.88;15.88;;;10.50;99.90;;;;;;5072894;28;20447;-73
2023/04/28 06:31:09;;;;;;;22.98;15.05;;;10.50;99.90;;;;;;5093196;28;20417;-72
2023/04/28 06:33:38;;;;;;;20.73;15.18;;;10.50;99.90;;;;;;5076581;28;20139;-72
2023/04/28 06:36:04;;;;;;;25.88;15.68;;;10.50;99.90;;;;;;5060165;28;20112;-72
2023/04/28 06:38:30;;;;;;;22.27;14.15;;;10.50;99.90;;;;;;5067395;28;20462;-71
2023/04/28 06:40:55;;;;;;;21.08;14.10;;;10.50;99.90;;;;;;5072859;28;20137;-71
2023/04/28 06:43:21;;;;;;;20.20;14.48;;;10.60;99.90;;;;;;5072998;28;20530;-72
2023/04/28 06:45:47;;;;;;;19.08;14.82;;;10.60;99.90;;;;;;5083340;28;20071;-72
2023/04/28 06:48:12;;;;;;;21.30;14.30;;;10.70;99.90;;;;;;5087988;28;20490;-72
2023/04/28 06:50:38;;;;;;;20.48;13.43;;;10.80;99.90;;;;;;5064725;28;20120;-70
2023/04/28 06:53:03;;;;;;;20.77;13.93;;;10.80;99.90;;;;;;5062483;28;20068;-70
2023/04/28 06:55:29;;;;;;;18.75;13.13;;;10.90;99.60;;;;;;5071847;28;20032;-74
2023/04/28 06:57:55;;;;;;;21.77;13.82;;;10.90;99.20;;;;;;5073524;28;20040;-72
2023/04/28 07:00:20;;;;;;;17.02;12.23;;;11.00;96.90;;;;;;5071598;28;20039;-70
2023/04/28 07:02:46;;;;;;;18.80;13.13;;;11.00;99.00;;;;;;5071879;28;20044;-70
2023/04/28 07:05:12;;;;;;;18.58;12.57;;;11.10;97.40;;;;;;5072889;28;20036;-71
2023/04/28 07:07:38;;;;;;;19.48;12.80;;;11.10;91.20;;;;;;5071314;28;20036;-71
2023/04/28 07:10:05;;;;;;;25.00;13.60;;;11.00;89.10;;;;;;5071120;28;20029;-72
2023/04/28 07:12:30;;;;;;;20.42;13.00;;;11.00;84.20;;;;;;5066679;28;20139;-72
2023/04/28 07:14:56;;;;;;;19.88;13.88;;;11.00;91.50;;;;;;5072149;28;20530;-71
2023/04/28 07:17:22;;;;;;;19.52;13.57;;;11.10;95.00;;;;;;5059049;28;20032;-71
2023/04/28 07:19:49;;;;;;;17.15;12.82;;;11.10;95.10;;;;;;5072098;28;20028;-71
2023/04/28 07:22:15;;;;;;;19.63;13.73;;;11.20;96.90;;;;;;5071734;28;20025;-70
2023/04/28 07:24:41;;;;;;;19.00;12.80;;;11.20;99.00;;;;;;5066463;28;20490;-71
2023/04/28 07:27:06;;;;;;;17.50;12.93;;;11.20;99.90;;;;;;5062751;28;20035;-71
2023/04/28 07:29:32;;;;;;;16.55;12.48;;;11.30;99.90;;;;;;5071239;28;20044;-72
2023/04/28 07:31:59;;;;;;;23.92;13.32;;;11.40;99.90;;;;;;5071968;28;20028;-73
2023/04/28 07:34:24;;;;;;;18.42;13.13;;;11.40;96.80;;;;;;5073103;28;20035;-72
2023/04/28 07:36:50;;;;;;;15.10;12.65;;;11.50;97.00;;;;;;5070211;28;20028;-74
2023/04/28 07:39:16;;;;;;;18.70;13.02;;;11.50;95.80;;;;;;5069566;28;20036;-72
2023/04/28 07:41:41;;;;;;;19.23;13.07;;;11.50;89.20;;;;;;5071977;28;20029;-71
2023/04/28 07:44:08;;;;;;;18.80;12.75;;;11.50;83.70;;;;;;5071359;28;20033;-73
2023/04/28 07:46:34;;;;;;;20.95;13.63;;;11.60;90.30;;;;;;5073469;28;20055;-73
2023/04/28 07:49:03;;;;;;;20.10;13.27;;;11.60;91.90;;;;;;5059153;28;20035;-73
2023/04/28 07:51:30;;;;;;;18.52;12.65;;;11.60;90.10;;;;;;5063004;28;20100;-73
2023/04/28 07:53:56;;;;;;;18.30;13.88;;;11.60;89.30;;;;;;5070966;28;20043;-73
2023/04/28 07:56:22;;;;;;;17.13;12.98;;;11.60;86.20;;;;;;5073018;28;20029;-74
2023/04/28 07:58:48;;;;;;;20.90;13.60;;;11.60;96.40;;;;;;5065133;28;20072;-73
2023/04/28 08:01:13;;;;;;;20.30;13.75;;;11.50;96.60;;;;;;5059740;28;20095;-71
2023/04/28 08:03:39;;;;;;;18.48;13.00;;;11.50;97.10;;;;;;5067797;28;20036;-71
2023/04/28 08:06:05;;;;;;;20.88;13.57;;;11.50;96.20;;;;;;5078648;28;20359;-71
2023/04/28 08:08:31;;;;;;;19.38;13.52;;;11.50;97.10;;;;;;5071956;28;20054;-72
2023/04/28 08:10:57;;;;;;;22.92;13.48;;;11.40;92.80;;;;;;5072557;28;20056;-71
2023/04/28 08:13:23;;;;;;;21.98;13.82;;;11.40;95.50;;;;;;5068588;28;20100;-72
2023/04/28 08:15:48;;;;;;;19.38;14.02;;;11.40;97.60;;;;;;5068953;28;20071;-72
2023/04/28 08:18:14;;;;;;;22.60;14.55;;;11.50;99.20;;;;;;5052936;28;20359;-73
2023/04/28 08:20:40;;;;;;;20.67;13.98;;;11.50;99.90;;;;;;5064150;28;20033;-73
2023/04/28 08:23:07;;;;;;;18.17;13.70;;;11.60;99.00;;;;;;5055057;28;20079;-69
2023/04/28 08:25:33;;;;;;;19.95;12.90;;;11.60;96.40;;;;;;5074730;28;20036;-71
2023/04/28 08:27:59;;;;;;;16.65;12.40;;;11.70;95.50;;;;;;5077302;28;20032;-71
2023/04/28 08:30:24;;;;;;;15.98;13.15;;;11.70;86.80;;;;;;5060589;28;20493;-73
2023/04/28 08:32:50;;;;;;;22.95;13.75;;;11.90;91.90;;;;;;5068214;28;20033;-72
2023/04/28 08:35:16;;;;;;;19.25;13.38;;;12.00;81.00;;;;;;5073316;28;20028;-73
2023/04/28 08:37:42;;;;;;;21.27;13.43;;;12.10;81.00;;;;;;5075768;28;20477;-72
2023/04/28 08:40:08;;;;;;;24.58;13.20;;;12.20;75.70;;;;;;5094022;28;20402;-72
2023/04/28 08:42:35;;;;;;;17.05;13.50;;;12.30;55.90;;;;;;5093725;28;20024;-72
2023/04/28 08:45:03;;;;;;;19.15;13.65;;;12.30;53.50;;;;;;5073299;28;20107;-73
2023/04/28 08:47:37;;;;;;;18.27;13.32;;;12.40;59.20;;;;;;5056952;28;20072;-73
2023/04/28 08:50:06;;;;;;;18.42;12.32;;;12.60;53.10;;;;;;5053929;28;20021;-72
2023/04/28 08:52:32;;;;;;;18.90;12.43;;;12.70;46.20;;;;;;5069223;28;20021;-72
2023/04/28 08:55:01;;;;;;;18.67;13.38;;;13.00;34.70;;;;;;5075227;28;20508;-73
2023/04/28 08:57:33;;;;;;;16.40;12.75;;;13.30;41.50;;;;;;5071187;28;20040;-72
2023/04/28 09:00:00;;;;;;;17.10;12.38;;;13.40;21.70;;;;;;5056404;28;20063;-73
2023/04/28 09:02:28;;;;;;;14.85;11.75;;;13.40;18.50;;;;;;5069572;28;20502;-73
2023/04/28 09:04:53;;;;;;;17.13;11.82;;;13.40;12.30;;;;;;5076084;28;20037;-73
2023/04/28 09:07:19;;;;;;;18.38;11.63;;;13.60;14.70;;;;;;5076043;28;20032;-73
2023/04/28 09:09:44;;;;;;;15.18;11.95;;;13.60;1.00;;;;;;5068682;28;20033;-73
2023/04/28 09:12:10;;;;;;;18.50;11.82;;;13.80;16.60;;;;;;5067698;28;20033;-73
2023/04/28 09:14:37;;;;;;;20.83;12.45;;;13.90;1.00;;;;;;5067703;28;20035;-72
2023/04/28 09:17:10;;;;;;;18.20;11.13;;;14.00;1.00;;;;;;5063470;28;20512;-72
2023/04/28 09:19:37;;;;;;;16.17;10.57;;;14.20;1.00;;;;;;5069652;28;20042;-73
2023/04/28 09:22:04;;;;;;;16.85;10.45;;;14.40;1.00;;;;;;5070938;28;20490;-73
2023/04/28 09:24:32;;;;;;;15.48;9.48;;;14.50;1.00;;;;;;5058840;28;20063;-73
2023/04/28 09:27:01;;;;;;;10.88;9.55;;;15.30;1.00;;;;;;5071035;28;20429;-72
2023/04/28 09:29:27;;;;;;;13.98;8.95;;;16.80;99.90;;;;;;5074580;28;20024;-73
2023/04/28 09:31:53;;;;;;;11.55;8.48;;;18.30;99.90;;;;;;5075570;28;20070;-74
2023/04/28 09:34:20;;;;;;;11.88;7.75;;;18.80;99.90;;;;;;5061858;28;20044;-73
2023/04/28 09:36:48;;;;;;;10.48;8.50;;;19.50;37.00;;;;;;5071783;28;20107;-74
2023/04/28 09:39:14;;;;;;;11.25;8.32;;;19.80;99.90;;;;;;5074828;28;20478;-73
2023/04/28 09:41:41;;;;;;;9.02;8.00;;;19.00;1.00;;;;;;5075386;28;20044;-74
2023/04/28 09:44:11;;;;;;;11.77;8.10;;;18.90;1.00;;;;;;5074727;28;20025;-74
2023/04/28 09:46:37;;;;;;;10.50;8.25;;;18.60;28.80;;;;;;5075107;28;20486;-73
2023/04/28 09:49:03;;;;;;;8.25;7.45;;;18.70;99.90;;;;;;5068390;28;20032;-74
2023/04/28 09:51:28;;;;;;;11.25;7.68;;;19.20;99.90;;;;;;5054765;28;20021;-74
2023/04/28 09:53:58;;;;;;;9.75;7.75;;;19.50;1.00;;;;;;5069860;28;20036;-73
2023/04/28 09:56:27;;;;;;;11.23;8.00;;;19.10;99.90;;;;;;5073536;28;20024;-73
2023/04/28 09:58:53;;;;;;;10.10;7.78;;;18.90;99.90;;;;;;5065236;28;20041;-72
2023/04/28 10:01:19;;;;;;;9.38;8.25;;;18.70;1.00;;;;;;5059096;28;20045;-74
2023/04/28 10:03:45;;;;;;;9.48;8.15;;;18.30;1.00;;;;;;5054260;28;20171;-73
2023/04/28 10:06:10;;;;;;;11.70;9.10;;;17.90;1.00;;;;;;5073647;28;20028;-73
2023/04/28 10:08:36;;;;;;;11.23;8.50;;;17.20;1.00;;;;;;5073349;28;20024;-73
2023/04/28 10:11:04;;;;;;;11.43;8.82;;;17.40;99.90;;;;;;5070405;28;20025;-73
2023/04/28 10:13:31;;;;;;;11.07;9.13;;;17.20;99.90;;;;;;5073319;28;20036;-72
2023/04/28 10:15:57;;;;;;;14.95;9.70;;;17.50;1.00;;;;;;5069555;28;20401;-74
2023/04/28 10:18:23;;;;;;;14.57;10.32;;;17.70;1.00;;;;;;5073833;28;20036;-73
2023/04/28 10:20:54;;;;;;;12.27;9.07;;;17.80;99.90;;;;;;5064805;28;20021;-73
2023/04/28 10:23:37;;;;;;;11.05;9.38;;;17.50;1.00;;;;;;5071109;28;20123;-74
2023/04/28 10:26:09;;;;;;;11.43;9.47;;;17.40;99.90;;;;;;5072047;28;20042;-73
2023/04/28 10:28:35;;;;;;;10.57;8.95;;;17.80;99.90;;;;;;5072091;28;20032;-74
2023/04/28 10:31:17;;;;;;;12.25;8.98;;;17.80;1.00;;;;;;5073418;28;20398;-74
2023/04/28 10:33:43;;;;;;;10.20;9.20;;;17.60;99.90;;;;;;5073236;28;20028;-74
2023/04/28 10:36:09;;;;;;;14.73;9.75;;;17.90;99.90;;;;;;5071465;28;20028;-73
2023/04/28 10:39:00;;;;;;;11.05;8.55;;;18.00;99.90;;;;;;5073904;28;20393;-74
2023/04/28 10:41:33;;;;;;;10.80;8.70;;;18.20;1.00;;;;;;5070155;28;20032;-73
2023/04/28 10:44:19;;;;;;;11.52;9.25;;;18.30;99.90;;;;;;5069531;28;20032;-74
2023/04/28 10:47:08;;;;;;;12.57;9.93;;;18.20;54.90;;;;;;5073144;28;20026;-74
2023/04/28 10:52:48;;;;;;;14.00;9.65;;;17.60;28.80;;;;;;5102177;27;20377;-74
2023/04/28 10:55:35;;;;;;;13.25;9.80;;;17.70;1.00;;;;;;5091950;28;20032;-73
2023/04/28 10:58:21;;;;;;;13.23;9.88;;;17.50;99.90;;;;;;5090704;28;20111;-74
2023/04/28 11:00:47;;;;;;;13.80;9.30;;;17.20;99.90;;;;;;5094931;28;20024;-75
2023/04/28 11:03:58;;;;;;;13.25;9.05;;;17.40;99.90;;;;;;5081636;28;20028;-73
2023/04/28 11:06:27;;;;;;;11.40;9.45;;;17.50;1.00;;;;;;5082667;28;20035;-73
2023/04/28 11:12:09;;;;;;;14.77;10.38;;;17.70;99.90;;;;;;5070276;28;20134;-73
2023/04/28 11:14:36;;;;;;;12.60;9.15;;;17.90;1.00;;;;;;5064847;28;20499;-73
2023/04/28 11:17:03;;;;;;;12.13;9.02;;;18.20;1.00;;;;;;5058083;28;20024;-73
2023/04/28 11:19:36;;;;;;;13.35;8.90;;;18.80;1.00;;;;;;5059728;28;20064;-74
2023/04/28 11:22:03;;;;;;;11.63;9.75;;;18.70;99.90;;;;;;5067152;28;20477;-74
2023/04/28 11:24:29;;;;;;;13.27;10.00;;;18.70;99.90;;;;;;5031226;28;20367;-74
2023/04/28 11:26:57;;;;;;;10.27;8.38;;;18.10;31.20;;;;;;5032511;28;20029;-76
2023/04/28 11:29:35;;;;;;;13.88;8.43;;;18.20;99.90;;;;;;5030818;28;20132;-76
2023/04/28 11:32:03;;;;;;;10.20;8.40;;;18.20;51.80;;;;;;5039927;28;20029;-76
2023/04/28 11:34:29;;;;;;;11.65;9.60;;;18.40;96.90;;;;;;5052567;28;20553;-71
2023/04/28 11:36:55;;;;;;;11.93;9.38;;;18.20;99.90;;;;;;5049664;28;20064;-76
2023/04/28 11:39:29;;;;;;;15.48;10.13;;;18.10;99.90;;;;;;5041379;28;20521;-76
2023/04/28 11:41:56;;;;;;;12.93;10.00;;;18.20;1.00;;;;;;5040699;28;20092;-75
2023/04/28 11:44:27;;;;;;;12.52;9.50;;;18.20;44.00;;;;;;5051466;28;20372;-74
2023/04/28 11:47:01;;;;;;;17.30;10.88;;;17.80;1.00;;;;;;5037105;28;20048;-75
2023/04/28 11:49:29;;;;;;;15.05;10.38;;;17.40;1.00;;;;;;5033167;28;20036;-75
2023/04/28 11:51:58;;;;;;;16.83;10.73;;;17.20;99.90;;;;;;5033473;28;20049;-76
2023/04/28 11:54:26;;;;;;;13.10;10.27;;;17.00;99.90;;;;;;5048090;28;20541;-75
2023/04/28 11:56:53;;;;;;;14.35;9.90;;;17.10;99.90;;;;;;5054266;28;20033;-76
2023/04/28 11:59:24;;;;;;;14.88;10.57;;;16.90;99.90;;;;;;5053938;28;20037;-75
2023/04/28 12:01:52;;;;;;;16.70;10.50;;;16.90;99.90;;;;;;5053092;28;20479;-76
2023/04/28 12:07:20;;;;;;;12.48;8.82;;;16.90;99.90;;;;;;5080191;22;20450;-79
2023/04/28 12:10:09;;;;;;;11.27;7.68;;;16.70;99.90;;;;;;5070362;28;20021;-78
2023/04/28 12:12:35;;;;;;;7.63;6.40;;;16.80;99.90;;;;;;5069869;28;20032;-79
2023/04/28 12:15:04;;;;;;;8.13;6.32;;;16.70;99.90;;;;;;5068457;28;20024;-79
2023/04/28 12:17:38;;;;;;;7.78;6.78;;;16.40;99.90;;;;;;5064983;28;20021;-79
2023/04/28 12:20:06;;;;;;;10.13;7.72;;;16.40;1.00;;;;;;5068052;28;20075;-77
2023/04/28 12:22:46;;;;;;;11.43;7.75;;;16.30;1.00;;;;;;5070165;28;20417;-83
2023/04/28 12:25:15;;;;;;;13.25;8.88;;;16.40;1.00;;;;;;5068621;28;20398;-82
2023/04/28 12:27:41;;;;;;;12.13;8.73;;;16.50;1.00;;;;;;5068227;28;20016;-80
2023/04/28 12:30:27;;;;;;;10.98;7.88;;;16.40;1.00;;;;;;5069788;28;20024;-80
2023/04/28 12:32:54;;;;;;;11.85;8.27;;;16.20;1.00;;;;;;5068901;28;20505;-80
2023/04/28 12:35:22;;;;;;;10.15;7.72;;;16.20;1.00;;;;;;5068231;28;20074;-81
2023/04/28 12:37:48;;;;;;;9.85;7.63;;;16.30;1.00;;;;;;5068859;28;20187;-80
2023/04/28 12:40:14;;;;;;;12.52;7.10;;;16.20;1.00;;;;;;5069682;28;20104;-79
2023/04/28 12:42:39;;;;;;;10.23;7.40;;;16.40;1.00;;;;;;5069751;28;20029;-81
2023/04/28 12:45:06;;;;;;;9.15;5.97;;;16.30;1.00;;;;;;5070038;28;20052;-78
2023/04/28 12:47:32;;;;;;;10.90;7.25;;;16.10;1.00;;;;;;5069382;28;20033;-79